sensor_id;sensor_type;location;lat;lon;timestamp;temperature;humidity
66213;SHT31;53015;50.046;8.238;2022-11-15T00:00:00;8.42;96.13
66213;SHT31;53015;50.046;8.238;2022-11-15T00:02:26;8.42;96.20
66213;SHT31;53015;50.046;8.238;2022-11-15T00:04:51;8.55;96.01
66213;SHT31;53015;50.046;8.238;2022-11-15T00:07:16;8.45;96.02
66213;SHT31;53015;50.046;8.238;2022-11-15T00:09:42;8.35;96.48
66213;SHT31;53015;50.046;8.238;2022-11-15T00:12:07;8.32;96.43
66213;SHT31;53015;50.046;8.238;2022-11-15T00:14:32;8.27;96.42
66213;SHT31;53015;50.046;8.238;2022-11-15T00:16:57;8.24;96.49
66213;SHT31;53015;50.046;8.238;2022-11-15T00:19:23;8.24;96.58
66213;SHT31;53015;50.046;8.238;2022-11-15T00:21:48;8.18;96.78
66213;SHT31;53015;50.046;8.238;2022-11-15T00:24:13;8.28;97.09
66213;SHT31;53015;50.046;8.238;2022-11-15T00:26:39;8.34;96.85
66213;SHT31;53015;50.046;8.238;2022-11-15T00:29:04;8.29;96.69
66213;SHT31;53015;50.046;8.238;2022-11-15T00:31:30;8.32;96.77
66213;SHT31;53015;50.046;8.238;2022-11-15T00:33:55;8.31;96.90
66213;SHT31;53015;50.046;8.238;2022-11-15T00:36:21;8.28;96.79
66213;SHT31;53015;50.046;8.238;2022-11-15T00:38:46;8.31;96.86
66213;SHT31;53015;50.046;8.238;2022-11-15T00:41:11;8.28;97.06
66213;SHT31;53015;50.046;8.238;2022-11-15T00:43:36;8.28;97.36
66213;SHT31;53015;50.046;8.238;2022-11-15T00:46:02;8.38;97.17
66213;SHT31;53015;50.046;8.238;2022-11-15T00:48:28;8.45;97.02
66213;SHT31;53015;50.046;8.238;2022-11-15T00:50:53;8.53;96.77
66213;SHT31;53015;50.046;8.238;2022-11-15T00:53:18;8.58;96.46
66213;SHT31;53015;50.046;8.238;2022-11-15T00:55:43;8.50;96.33
66213;SHT31;53015;50.046;8.238;2022-11-15T00:58:09;8.45;96.44
66213;SHT31;53015;50.046;8.238;2022-11-15T01:00:34;8.45;96.62
66213;SHT31;53015;50.046;8.238;2022-11-15T01:03:00;8.53;96.64
66213;SHT31;53015;50.046;8.238;2022-11-15T01:05:25;8.67;96.49
66213;SHT31;53015;50.046;8.238;2022-11-15T01:07:51;8.70;95.86
66213;SHT31;53015;50.046;8.238;2022-11-15T01:10:16;8.63;95.99
66213;SHT31;53015;50.046;8.238;2022-11-15T01:12:42;8.65;96.39
66213;SHT31;53015;50.046;8.238;2022-11-15T01:15:07;8.70;96.16
66213;SHT31;53015;50.046;8.238;2022-11-15T01:17:32;8.76;96.02
66213;SHT31;53015;50.046;8.238;2022-11-15T01:19:58;8.80;95.85
66213;SHT31;53015;50.046;8.238;2022-11-15T01:22:23;8.80;95.71
66213;SHT31;53015;50.046;8.238;2022-11-15T01:24:51;8.81;95.82
66213;SHT31;53015;50.046;8.238;2022-11-15T01:27:16;8.86;95.90
66213;SHT31;53015;50.046;8.238;2022-11-15T01:29:42;8.91;95.50
66213;SHT31;53015;50.046;8.238;2022-11-15T01:32:07;8.87;95.44
66213;SHT31;53015;50.046;8.238;2022-11-15T01:34:33;8.93;95.34
66213;SHT31;53015;50.046;8.238;2022-11-15T01:36:58;8.99;95.40
66213;SHT31;53015;50.046;8.238;2022-11-15T01:39:23;9.03;95.37
66213;SHT31;53015;50.046;8.238;2022-11-15T01:41:49;9.04;95.29
66213;SHT31;53015;50.046;8.238;2022-11-15T01:46:59;9.05;95.42
66213;SHT31;53015;50.046;8.238;2022-11-15T01:49:25;9.03;95.66
66213;SHT31;53015;50.046;8.238;2022-11-15T01:51:52;9.03;95.84
66213;SHT31;53015;50.046;8.238;2022-11-15T01:54:18;9.07;95.77
66213;SHT31;53015;50.046;8.238;2022-11-15T01:56:46;9.13;95.58
66213;SHT31;53015;50.046;8.238;2022-11-15T01:59:15;9.23;95.48
66213;SHT31;53015;50.046;8.238;2022-11-15T02:01:41;9.23;95.38
66213;SHT31;53015;50.046;8.238;2022-11-15T02:04:08;9.23;95.53
66213;SHT31;53015;50.046;8.238;2022-11-15T02:06:35;9.31;95.57
66213;SHT31;53015;50.046;8.238;2022-11-15T02:09:01;9.28;95.43
66213;SHT31;53015;50.046;8.238;2022-11-15T02:11:26;9.21;95.68
66213;SHT31;53015;50.046;8.238;2022-11-15T02:13:51;9.20;95.74
66213;SHT31;53015;50.046;8.238;2022-11-15T02:21:36;9.00;96.03
66213;SHT31;53015;50.046;8.238;2022-11-15T02:26:45;8.87;96.66
66213;SHT31;53015;50.046;8.238;2022-11-15T02:32:06;8.81;97.32
66213;SHT31;53015;50.046;8.238;2022-11-15T02:34:45;8.96;97.27
66213;SHT31;53015;50.046;8.238;2022-11-15T02:42:30;8.99;96.64
66213;SHT31;53015;50.046;8.238;2022-11-15T02:45:19;9.07;96.62
66213;SHT31;53015;50.046;8.238;2022-11-15T02:47:46;9.10;96.83
66213;SHT31;53015;50.046;8.238;2022-11-15T02:50:13;9.14;96.58
66213;SHT31;53015;50.046;8.238;2022-11-15T02:52:40;9.15;96.48
66213;SHT31;53015;50.046;8.238;2022-11-15T02:55:25;9.23;96.45
66213;SHT31;53015;50.046;8.238;2022-11-15T03:00:25;9.15;96.51
66213;SHT31;53015;50.046;8.238;2022-11-15T03:03:08;9.28;96.39
66213;SHT31;53015;50.046;8.238;2022-11-15T03:05:37;9.34;96.11
66213;SHT31;53015;50.046;8.238;2022-11-15T03:10:42;9.38;96.10
66213;SHT31;53015;50.046;8.238;2022-11-15T03:16:00;9.45;95.58
66213;SHT31;53015;50.046;8.238;2022-11-15T03:18:30;9.49;95.50
66213;SHT31;53015;50.046;8.238;2022-11-15T03:20:58;9.52;95.38
66213;SHT31;53015;50.046;8.238;2022-11-15T03:23:24;9.51;95.07
66213;SHT31;53015;50.046;8.238;2022-11-15T03:25:51;9.51;95.26
66213;SHT31;53015;50.046;8.238;2022-11-15T03:28:19;9.52;95.26
66213;SHT31;53015;50.046;8.238;2022-11-15T03:30:45;9.55;95.07
66213;SHT31;53015;50.046;8.238;2022-11-15T03:33:11;9.53;94.86
66213;SHT31;53015;50.046;8.238;2022-11-15T03:35:37;9.48;95.06
66213;SHT31;53015;50.046;8.238;2022-11-15T03:40:31;9.45;95.26
66213;SHT31;53015;50.046;8.238;2022-11-15T03:43:07;9.42;95.58
66213;SHT31;53015;50.046;8.238;2022-11-15T03:45:41;9.35;95.78
66213;SHT31;53015;50.046;8.238;2022-11-15T03:48:15;9.36;96.09
66213;SHT31;53015;50.046;8.238;2022-11-15T03:50:42;9.48;95.97
66213;SHT31;53015;50.046;8.238;2022-11-15T03:53:08;9.49;95.74
66213;SHT31;53015;50.046;8.238;2022-11-15T03:55:34;9.53;95.70
66213;SHT31;53015;50.046;8.238;2022-11-15T03:57:59;9.56;95.61
66213;SHT31;53015;50.046;8.238;2022-11-15T04:00:25;9.65;95.39
66213;SHT31;53015;50.046;8.238;2022-11-15T04:02:51;9.61;95.44
66213;SHT31;53015;50.046;8.238;2022-11-15T04:05:16;9.61;95.30
66213;SHT31;53015;50.046;8.238;2022-11-15T04:07:41;9.79;94.89
66213;SHT31;53015;50.046;8.238;2022-11-15T04:10:07;9.76;94.72
66213;SHT31;53015;50.046;8.238;2022-11-15T04:12:37;9.76;94.76
66213;SHT31;53015;50.046;8.238;2022-11-15T04:17:34;9.75;95.22
66213;SHT31;53015;50.046;8.238;2022-11-15T04:20:01;9.69;95.12
66213;SHT31;53015;50.046;8.238;2022-11-15T04:22:45;9.65;95.44
66213;SHT31;53015;50.046;8.238;2022-11-15T04:25:28;9.56;95.79
66213;SHT31;53015;50.046;8.238;2022-11-15T04:27:54;9.65;95.79
66213;SHT31;53015;50.046;8.238;2022-11-15T04:30:19;9.65;95.62
66213;SHT31;53015;50.046;8.238;2022-11-15T04:32:44;9.63;95.63
66213;SHT31;53015;50.046;8.238;2022-11-15T04:35:09;9.76;95.48
66213;SHT31;53015;50.046;8.238;2022-11-15T04:37:35;9.78;95.65
66213;SHT31;53015;50.046;8.238;2022-11-15T04:40:00;9.76;95.39
66213;SHT31;53015;50.046;8.238;2022-11-15T04:42:25;9.75;95.38
66213;SHT31;53015;50.046;8.238;2022-11-15T04:44:51;9.72;95.64
66213;SHT31;53015;50.046;8.238;2022-11-15T04:47:16;9.78;95.75
66213;SHT31;53015;50.046;8.238;2022-11-15T04:49:41;9.80;95.79
66213;SHT31;53015;50.046;8.238;2022-11-15T04:52:07;9.83;95.60
66213;SHT31;53015;50.046;8.238;2022-11-15T04:54:32;9.80;95.29
66213;SHT31;53015;50.046;8.238;2022-11-15T04:56:57;9.80;95.43
66213;SHT31;53015;50.046;8.238;2022-11-15T04:59:22;9.79;95.58
66213;SHT31;53015;50.046;8.238;2022-11-15T05:01:48;9.85;95.60
66213;SHT31;53015;50.046;8.238;2022-11-15T05:04:13;9.87;95.53
66213;SHT31;53015;50.046;8.238;2022-11-15T05:06:45;9.90;95.23
66213;SHT31;53015;50.046;8.238;2022-11-15T05:09:11;9.85;95.37
66213;SHT31;53015;50.046;8.238;2022-11-15T05:11:38;9.80;95.63
66213;SHT31;53015;50.046;8.238;2022-11-15T05:14:03;9.82;95.70
66213;SHT31;53015;50.046;8.238;2022-11-15T05:16:28;9.91;95.61
66213;SHT31;53015;50.046;8.238;2022-11-15T05:18:54;9.90;95.60
66213;SHT31;53015;50.046;8.238;2022-11-15T05:21:19;9.87;95.61
66213;SHT31;53015;50.046;8.238;2022-11-15T05:23:45;9.94;95.34
66213;SHT31;53015;50.046;8.238;2022-11-15T05:26:10;9.97;95.32
66213;SHT31;53015;50.046;8.238;2022-11-15T05:28:35;9.94;95.35
66213;SHT31;53015;50.046;8.238;2022-11-15T05:31:02;10.04;95.40
66213;SHT31;53015;50.046;8.238;2022-11-15T05:33:27;10.00;95.37
66213;SHT31;53015;50.046;8.238;2022-11-15T05:35:58;10.01;95.24
66213;SHT31;53015;50.046;8.238;2022-11-15T05:38:25;10.04;95.25
66213;SHT31;53015;50.046;8.238;2022-11-15T05:40:50;10.03;95.38
66213;SHT31;53015;50.046;8.238;2022-11-15T05:43:17;10.01;95.66
66213;SHT31;53015;50.046;8.238;2022-11-15T05:45:42;10.06;95.68
66213;SHT31;53015;50.046;8.238;2022-11-15T05:48:08;10.01;95.52
66213;SHT31;53015;50.046;8.238;2022-11-15T05:50:34;9.97;95.41
66213;SHT31;53015;50.046;8.238;2022-11-15T05:53:01;10.00;95.40
66213;SHT31;53015;50.046;8.238;2022-11-15T05:55:27;10.07;95.12
66213;SHT31;53015;50.046;8.238;2022-11-15T05:57:52;10.10;95.18
66213;SHT31;53015;50.046;8.238;2022-11-15T06:00:17;10.10;95.32
66213;SHT31;53015;50.046;8.238;2022-11-15T06:02:43;10.06;95.10
66213;SHT31;53015;50.046;8.238;2022-11-15T06:05:08;10.11;95.05
66213;SHT31;53015;50.046;8.238;2022-11-15T06:07:33;10.04;95.07
66213;SHT31;53015;50.046;8.238;2022-11-15T06:09:58;10.01;95.29
66213;SHT31;53015;50.046;8.238;2022-11-15T06:12:24;10.00;95.40
66213;SHT31;53015;50.046;8.238;2022-11-15T06:14:49;9.98;95.48
66213;SHT31;53015;50.046;8.238;2022-11-15T06:17:14;10.00;95.55
66213;SHT31;53015;50.046;8.238;2022-11-15T06:19:39;9.98;95.65
66213;SHT31;53015;50.046;8.238;2022-11-15T06:22:05;10.03;95.73
66213;SHT31;53015;50.046;8.238;2022-11-15T06:24:30;10.13;95.52
66213;SHT31;53015;50.046;8.238;2022-11-15T06:26:55;10.18;95.28
66213;SHT31;53015;50.046;8.238;2022-11-15T06:29:22;10.17;95.33
66213;SHT31;53015;50.046;8.238;2022-11-15T06:31:47;10.16;95.28
66213;SHT31;53015;50.046;8.238;2022-11-15T06:34:12;10.14;95.08
66213;SHT31;53015;50.046;8.238;2022-11-15T06:36:38;10.14;95.19
66213;SHT31;53015;50.046;8.238;2022-11-15T06:39:03;10.21;94.86
66213;SHT31;53015;50.046;8.238;2022-11-15T06:41:29;10.21;94.91
66213;SHT31;53015;50.046;8.238;2022-11-15T06:43:54;10.22;95.04
66213;SHT31;53015;50.046;8.238;2022-11-15T06:46:19;10.25;95.18
66213;SHT31;53015;50.046;8.238;2022-11-15T06:48:45;10.27;94.73
66213;SHT31;53015;50.046;8.238;2022-11-15T06:51:10;10.27;94.40
66213;SHT31;53015;50.046;8.238;2022-11-15T06:53:35;10.25;94.48
66213;SHT31;53015;50.046;8.238;2022-11-15T06:56:01;10.25;94.54
66213;SHT31;53015;50.046;8.238;2022-11-15T06:58:27;10.24;94.69
66213;SHT31;53015;50.046;8.238;2022-11-15T07:00:52;10.27;94.71
66213;SHT31;53015;50.046;8.238;2022-11-15T07:03:18;10.28;94.60
66213;SHT31;53015;50.046;8.238;2022-11-15T07:05:50;10.31;94.77
66213;SHT31;53015;50.046;8.238;2022-11-15T07:08:15;10.25;95.09
66213;SHT31;53015;50.046;8.238;2022-11-15T07:10:41;10.22;95.24
66213;SHT31;53015;50.046;8.238;2022-11-15T07:13:06;10.28;95.35
66213;SHT31;53015;50.046;8.238;2022-11-15T07:15:31;10.27;95.15
66213;SHT31;53015;50.046;8.238;2022-11-15T07:17:59;10.34;94.73
66213;SHT31;53015;50.046;8.238;2022-11-15T07:20:25;10.31;94.73
66213;SHT31;53015;50.046;8.238;2022-11-15T07:22:50;10.31;94.61
66213;SHT31;53015;50.046;8.238;2022-11-15T07:25:16;10.24;94.95
66213;SHT31;53015;50.046;8.238;2022-11-15T07:27:41;10.22;95.15
66213;SHT31;53015;50.046;8.238;2022-11-15T07:30:06;10.22;95.32
66213;SHT31;53015;50.046;8.238;2022-11-15T07:32:32;10.27;95.39
66213;SHT31;53015;50.046;8.238;2022-11-15T07:34:57;10.34;95.05
66213;SHT31;53015;50.046;8.238;2022-11-15T07:37:22;10.46;94.88
66213;SHT31;53015;50.046;8.238;2022-11-15T07:39:48;10.65;94.93
66213;SHT31;53015;50.046;8.238;2022-11-15T07:42:13;10.73;94.67
66213;SHT31;53015;50.046;8.238;2022-11-15T07:44:57;10.76;94.57
66213;SHT31;53015;50.046;8.238;2022-11-15T07:47:22;10.77;94.37
66213;SHT31;53015;50.046;8.238;2022-11-15T07:49:47;10.83;94.10
66213;SHT31;53015;50.046;8.238;2022-11-15T07:52:13;10.99;93.58
66213;SHT31;53015;50.046;8.238;2022-11-15T07:54:38;10.99;93.38
66213;SHT31;53015;50.046;8.238;2022-11-15T07:57:04;11.06;93.24
66213;SHT31;53015;50.046;8.238;2022-11-15T07:59:29;11.16;92.97
66213;SHT31;53015;50.046;8.238;2022-11-15T08:01:54;11.20;92.88
66213;SHT31;53015;50.046;8.238;2022-11-15T08:04:20;11.20;92.59
66213;SHT31;53015;50.046;8.238;2022-11-15T08:06:45;11.18;91.58
66213;SHT31;53015;50.046;8.238;2022-11-15T08:09:11;11.13;91.80
66213;SHT31;53015;50.046;8.238;2022-11-15T08:11:36;11.09;91.96
66213;SHT31;53015;50.046;8.238;2022-11-15T08:14:01;11.01;91.75
66213;SHT31;53015;50.046;8.238;2022-11-15T08:16:26;11.04;91.81
66213;SHT31;53015;50.046;8.238;2022-11-15T08:18:52;11.04;91.75
66213;SHT31;53015;50.046;8.238;2022-11-15T08:21:18;11.09;91.74
66213;SHT31;53015;50.046;8.238;2022-11-15T08:23:44;11.10;91.67
66213;SHT31;53015;50.046;8.238;2022-11-15T08:26:09;11.11;91.60
66213;SHT31;53015;50.046;8.238;2022-11-15T08:28:35;11.10;91.77
66213;SHT31;53015;50.046;8.238;2022-11-15T08:31:00;11.27;91.58
66213;SHT31;53015;50.046;8.238;2022-11-15T08:33:26;11.32;91.64
66213;SHT31;53015;50.046;8.238;2022-11-15T08:35:51;11.37;92.26
66213;SHT31;53015;50.046;8.238;2022-11-15T08:38:16;11.35;92.40
66213;SHT31;53015;50.046;8.238;2022-11-15T08:40:42;11.31;92.73
66213;SHT31;53015;50.046;8.238;2022-11-15T08:43:07;11.32;92.90
66213;SHT31;53015;50.046;8.238;2022-11-15T08:45:33;11.28;92.31
66213;SHT31;53015;50.046;8.238;2022-11-15T08:48:00;11.34;92.85
66213;SHT31;53015;50.046;8.238;2022-11-15T08:50:25;11.38;92.72
66213;SHT31;53015;50.046;8.238;2022-11-15T08:52:51;11.37;91.89
66213;SHT31;53015;50.046;8.238;2022-11-15T08:55:16;11.38;91.97
66213;SHT31;53015;50.046;8.238;2022-11-15T08:57:41;11.41;91.80
66213;SHT31;53015;50.046;8.238;2022-11-15T09:00:07;11.41;92.12
66213;SHT31;53015;50.046;8.238;2022-11-15T09:02:32;11.47;91.29
66213;SHT31;53015;50.046;8.238;2022-11-15T09:04:57;11.50;91.22
66213;SHT31;53015;50.046;8.238;2022-11-15T09:07:22;11.55;91.41
66213;SHT31;53015;50.046;8.238;2022-11-15T09:09:49;11.62;91.52
66213;SHT31;53015;50.046;8.238;2022-11-15T09:12:14;11.65;91.39
66213;SHT31;53015;50.046;8.238;2022-11-15T09:14:39;11.69;90.86
66213;SHT31;53015;50.046;8.238;2022-11-15T09:17:07;11.76;90.95
66213;SHT31;53015;50.046;8.238;2022-11-15T09:19:33;11.72;90.58
66213;SHT31;53015;50.046;8.238;2022-11-15T09:21:58;11.79;90.86
66213;SHT31;53015;50.046;8.238;2022-11-15T09:24:23;11.89;90.36
66213;SHT31;53015;50.046;8.238;2022-11-15T09:26:49;12.00;90.34
66213;SHT31;53015;50.046;8.238;2022-11-15T09:29:15;12.00;90.37
66213;SHT31;53015;50.046;8.238;2022-11-15T09:31:40;11.99;90.37
66213;SHT31;53015;50.046;8.238;2022-11-15T09:34:05;12.09;90.21
66213;SHT31;53015;50.046;8.238;2022-11-15T09:36:30;12.19;89.97
66213;SHT31;53015;50.046;8.238;2022-11-15T09:38:57;12.27;89.97
66213;SHT31;53015;50.046;8.238;2022-11-15T09:41:29;12.34;89.81
66213;SHT31;53015;50.046;8.238;2022-11-15T09:44:07;12.36;89.78
66213;SHT31;53015;50.046;8.238;2022-11-15T09:49:16;12.30;89.82
66213;SHT31;53015;50.046;8.238;2022-11-15T09:51:49;12.33;89.73
66213;SHT31;53015;50.046;8.238;2022-11-15T09:54:26;12.47;90.00
66213;SHT31;53015;50.046;8.238;2022-11-15T09:56:51;12.49;89.66
66213;SHT31;53015;50.046;8.238;2022-11-15T09:59:23;12.61;89.54
66213;SHT31;53015;50.046;8.238;2022-11-15T10:04:26;12.65;89.16
66213;SHT31;53015;50.046;8.238;2022-11-15T10:07:14;12.54;89.10
66213;SHT31;53015;50.046;8.238;2022-11-15T10:09:45;12.57;89.41
66213;SHT31;53015;50.046;8.238;2022-11-15T10:12:12;12.64;89.50
66213;SHT31;53015;50.046;8.238;2022-11-15T10:14:38;12.59;89.39
66213;SHT31;53015;50.046;8.238;2022-11-15T10:17:14;12.62;89.73
66213;SHT31;53015;50.046;8.238;2022-11-15T10:24:49;12.69;89.11
66213;SHT31;53015;50.046;8.238;2022-11-15T10:27:16;12.72;88.83
66213;SHT31;53015;50.046;8.238;2022-11-15T10:29:48;12.76;89.03
66213;SHT31;53015;50.046;8.238;2022-11-15T10:32:16;12.95;89.11
66213;SHT31;53015;50.046;8.238;2022-11-15T10:34:42;13.02;88.64
66213;SHT31;53015;50.046;8.238;2022-11-15T10:37:07;13.10;88.60
66213;SHT31;53015;50.046;8.238;2022-11-15T10:39:33;13.07;87.97
66213;SHT31;53015;50.046;8.238;2022-11-15T10:42:05;13.06;87.86
66213;SHT31;53015;50.046;8.238;2022-11-15T10:44:43;13.16;87.70
66213;SHT31;53015;50.046;8.238;2022-11-15T10:47:25;13.12;88.04
66213;SHT31;53015;50.046;8.238;2022-11-15T10:50:02;13.13;88.17
66213;SHT31;53015;50.046;8.238;2022-11-15T10:52:28;13.07;87.84
66213;SHT31;53015;50.046;8.238;2022-11-15T10:55:02;13.06;87.87
66213;SHT31;53015;50.046;8.238;2022-11-15T10:57:29;13.09;88.46
66213;SHT31;53015;50.046;8.238;2022-11-15T11:00:26;13.07;87.99
66213;SHT31;53015;50.046;8.238;2022-11-15T11:05:27;13.12;88.50
66213;SHT31;53015;50.046;8.238;2022-11-15T11:07:57;13.09;88.98
66213;SHT31;53015;50.046;8.238;2022-11-15T11:10:23;13.14;88.81
66213;SHT31;53015;50.046;8.238;2022-11-15T11:12:48;13.14;88.55
66213;SHT31;53015;50.046;8.238;2022-11-15T11:15:14;13.02;89.12
66213;SHT31;53015;50.046;8.238;2022-11-15T11:17:51;12.95;89.16
66213;SHT31;53015;50.046;8.238;2022-11-15T11:27:52;13.09;88.52
66213;SHT31;53015;50.046;8.238;2022-11-15T11:30:34;13.16;88.51
66213;SHT31;53015;50.046;8.238;2022-11-15T11:49:07;13.72;87.06
66213;SHT31;53015;50.046;8.238;2022-11-15T11:54:23;13.85;86.15
66213;SHT31;53015;50.046;8.238;2022-11-15T11:56:50;13.96;86.22
66213;SHT31;53015;50.046;8.238;2022-11-15T11:59:25;14.04;86.21
66213;SHT31;53015;50.046;8.238;2022-11-15T12:01:50;14.09;86.03
66213;SHT31;53015;50.046;8.238;2022-11-15T12:04:36;14.05;85.54
66213;SHT31;53015;50.046;8.238;2022-11-15T12:07:23;14.09;85.82
66213;SHT31;53015;50.046;8.238;2022-11-15T12:09:58;14.08;85.17
66213;SHT31;53015;50.046;8.238;2022-11-15T12:12:38;14.12;85.72
66213;SHT31;53015;50.046;8.238;2022-11-15T12:15:18;14.22;85.07
66213;SHT31;53015;50.046;8.238;2022-11-15T12:17:44;14.22;84.80
66213;SHT31;53015;50.046;8.238;2022-11-15T12:22:52;14.22;84.58
66213;SHT31;53015;50.046;8.238;2022-11-15T12:30:42;14.26;84.91
66213;SHT31;53015;50.046;8.238;2022-11-15T12:33:27;14.23;84.79
66213;SHT31;53015;50.046;8.238;2022-11-15T12:35:58;14.32;84.59
66213;SHT31;53015;50.046;8.238;2022-11-15T12:39:09;14.40;84.36
66213;SHT31;53015;50.046;8.238;2022-11-15T12:41:15;14.45;83.48
66213;SHT31;53015;50.046;8.238;2022-11-15T12:43:42;14.43;84.33
66213;SHT31;53015;50.046;8.238;2022-11-15T12:48:57;14.29;84.02
66213;SHT31;53015;50.046;8.238;2022-11-15T13:17:38;13.96;85.07
66213;SHT31;53015;50.046;8.238;2022-11-15T13:22:44;14.16;84.99
66213;SHT31;53015;50.046;8.238;2022-11-15T13:25:43;14.13;84.35
66213;SHT31;53015;50.046;8.238;2022-11-15T13:30:36;14.15;84.70
66213;SHT31;53015;50.046;8.238;2022-11-15T13:33:09;14.12;85.02
66213;SHT31;53015;50.046;8.238;2022-11-15T13:35:36;14.05;84.44
66213;SHT31;53015;50.046;8.238;2022-11-15T13:38:04;14.10;84.71
66213;SHT31;53015;50.046;8.238;2022-11-15T13:40:34;14.05;85.20
66213;SHT31;53015;50.046;8.238;2022-11-15T13:43:12;14.06;85.22
66213;SHT31;53015;50.046;8.238;2022-11-15T13:45:42;14.19;84.47
66213;SHT31;53015;50.046;8.238;2022-11-15T13:48:07;14.19;84.43
66213;SHT31;53015;50.046;8.238;2022-11-15T13:50:33;14.10;84.63
66213;SHT31;53015;50.046;8.238;2022-11-15T13:53:01;14.02;84.98
66213;SHT31;53015;50.046;8.238;2022-11-15T13:55:27;13.98;85.28
66213;SHT31;53015;50.046;8.238;2022-11-15T13:57:55;13.94;85.87
66213;SHT31;53015;50.046;8.238;2022-11-15T14:03:06;13.79;85.65
66213;SHT31;53015;50.046;8.238;2022-11-15T14:05:32;13.68;85.80
66213;SHT31;53015;50.046;8.238;2022-11-15T14:08:03;13.58;85.75
66213;SHT31;53015;50.046;8.238;2022-11-15T14:10:35;13.55;86.04
66213;SHT31;53015;50.046;8.238;2022-11-15T14:13:01;13.53;86.53
66213;SHT31;53015;50.046;8.238;2022-11-15T14:15:34;13.47;86.73
66213;SHT31;53015;50.046;8.238;2022-11-15T14:17:59;13.43;86.97
66213;SHT31;53015;50.046;8.238;2022-11-15T14:20:27;13.40;86.89
66213;SHT31;53015;50.046;8.238;2022-11-15T14:22:57;13.41;87.11
66213;SHT31;53015;50.046;8.238;2022-11-15T14:25:23;13.40;87.57
66213;SHT31;53015;50.046;8.238;2022-11-15T14:30:33;13.40;87.47
66213;SHT31;53015;50.046;8.238;2022-11-15T14:32:58;13.36;87.27
66213;SHT31;53015;50.046;8.238;2022-11-15T14:35:23;13.33;87.58
66213;SHT31;53015;50.046;8.238;2022-11-15T14:37:49;13.33;88.17
66213;SHT31;53015;50.046;8.238;2022-11-15T14:40:16;13.26;88.21
66213;SHT31;53015;50.046;8.238;2022-11-15T14:42:42;13.14;88.42
66213;SHT31;53015;50.046;8.238;2022-11-15T14:45:11;13.22;88.42
66213;SHT31;53015;50.046;8.238;2022-11-15T14:47:37;13.12;88.85
66213;SHT31;53015;50.046;8.238;2022-11-15T14:50:02;13.12;88.96
66213;SHT31;53015;50.046;8.238;2022-11-15T14:52:29;13.06;89.29
66213;SHT31;53015;50.046;8.238;2022-11-15T14:54:55;13.06;89.08
66213;SHT31;53015;50.046;8.238;2022-11-15T14:57:20;13.04;89.13
66213;SHT31;53015;50.046;8.238;2022-11-15T14:59:46;13.04;89.24
66213;SHT31;53015;50.046;8.238;2022-11-15T15:02:21;13.02;89.47
66213;SHT31;53015;50.046;8.238;2022-11-15T15:04:47;13.03;89.48
66213;SHT31;53015;50.046;8.238;2022-11-15T15:07:12;13.03;89.39
66213;SHT31;53015;50.046;8.238;2022-11-15T15:09:38;13.02;89.58
66213;SHT31;53015;50.046;8.238;2022-11-15T15:12:03;12.97;89.43
66213;SHT31;53015;50.046;8.238;2022-11-15T15:14:29;12.95;89.58
66213;SHT31;53015;50.046;8.238;2022-11-15T15:16:54;12.91;89.92
66213;SHT31;53015;50.046;8.238;2022-11-15T15:19:19;12.85;90.01
66213;SHT31;53015;50.046;8.238;2022-11-15T15:21:45;12.81;90.42
66213;SHT31;53015;50.046;8.238;2022-11-15T15:24:13;12.78;90.24
66213;SHT31;53015;50.046;8.238;2022-11-15T15:26:38;12.76;90.53
66213;SHT31;53015;50.046;8.238;2022-11-15T15:29:04;12.76;90.51
66213;SHT31;53015;50.046;8.238;2022-11-15T15:31:30;12.76;90.46
66213;SHT31;53015;50.046;8.238;2022-11-15T15:33:57;12.79;90.58
66213;SHT31;53015;50.046;8.238;2022-11-15T15:36:22;12.76;90.49
66213;SHT31;53015;50.046;8.238;2022-11-15T15:38:48;12.74;90.31
66213;SHT31;53015;50.046;8.238;2022-11-15T15:41:14;12.75;90.60
66213;SHT31;53015;50.046;8.238;2022-11-15T15:43:39;12.75;90.64
66213;SHT31;53015;50.046;8.238;2022-11-15T15:46:08;12.75;90.37
66213;SHT31;53015;50.046;8.238;2022-11-15T15:48:33;12.71;90.34
66213;SHT31;53015;50.046;8.238;2022-11-15T15:51:02;12.74;90.14
66213;SHT31;53015;50.046;8.238;2022-11-15T15:53:27;12.71;90.27
66213;SHT31;53015;50.046;8.238;2022-11-15T15:55:52;12.68;90.25
66213;SHT31;53015;50.046;8.238;2022-11-15T15:58:18;12.67;90.31
66213;SHT31;53015;50.046;8.238;2022-11-15T16:00:43;12.65;90.21
66213;SHT31;53015;50.046;8.238;2022-11-15T16:03:08;12.65;90.21
66213;SHT31;53015;50.046;8.238;2022-11-15T16:05:33;12.65;90.24
66213;SHT31;53015;50.046;8.238;2022-11-15T16:07:59;12.67;90.44
66213;SHT31;53015;50.046;8.238;2022-11-15T16:10:25;12.57;90.18
66213;SHT31;53015;50.046;8.238;2022-11-15T16:12:51;12.67;90.50
66213;SHT31;53015;50.046;8.238;2022-11-15T16:15:17;12.64;90.16
66213;SHT31;53015;50.046;8.238;2022-11-15T16:18:16;12.61;90.32
66213;SHT31;53015;50.046;8.238;2022-11-15T16:20:38;12.59;90.26
66213;SHT31;53015;50.046;8.238;2022-11-15T16:23:05;12.54;90.39
66213;SHT31;53015;50.046;8.238;2022-11-15T16:25:33;12.48;90.32
66213;SHT31;53015;50.046;8.238;2022-11-15T16:27:59;12.57;90.41
66213;SHT31;53015;50.046;8.238;2022-11-15T16:30:24;12.49;90.60
66213;SHT31;53015;50.046;8.238;2022-11-15T16:32:50;12.45;90.83
66213;SHT31;53015;50.046;8.238;2022-11-15T16:35:16;12.47;91.03
66213;SHT31;53015;50.046;8.238;2022-11-15T16:37:41;12.44;91.14
66213;SHT31;53015;50.046;8.238;2022-11-15T16:40:21;12.38;91.23
66213;SHT31;53015;50.046;8.238;2022-11-15T16:42:48;12.34;91.37
66213;SHT31;53015;50.046;8.238;2022-11-15T16:45:13;12.34;91.24
66213;SHT31;53015;50.046;8.238;2022-11-15T16:47:39;12.33;91.18
66213;SHT31;53015;50.046;8.238;2022-11-15T16:50:04;12.33;91.18
66213;SHT31;53015;50.046;8.238;2022-11-15T16:52:29;12.31;91.45
66213;SHT31;53015;50.046;8.238;2022-11-15T16:54:55;12.34;91.35
66213;SHT31;53015;50.046;8.238;2022-11-15T16:57:20;12.29;91.22
66213;SHT31;53015;50.046;8.238;2022-11-15T16:59:45;12.29;91.28
66213;SHT31;53015;50.046;8.238;2022-11-15T17:02:11;12.26;91.11
66213;SHT31;53015;50.046;8.238;2022-11-15T17:04:37;12.21;91.33
66213;SHT31;53015;50.046;8.238;2022-11-15T17:07:02;12.26;91.02
66213;SHT31;53015;50.046;8.238;2022-11-15T17:09:27;12.29;91.13
66213;SHT31;53015;50.046;8.238;2022-11-15T17:11:53;12.31;91.36
66213;SHT31;53015;50.046;8.238;2022-11-15T17:14:18;12.34;90.93
66213;SHT31;53015;50.046;8.238;2022-11-15T17:16:43;12.30;90.90
66213;SHT31;53015;50.046;8.238;2022-11-15T17:19:12;12.24;90.37
66213;SHT31;53015;50.046;8.238;2022-11-15T17:21:38;12.10;90.75
66213;SHT31;53015;50.046;8.238;2022-11-15T17:24:03;12.00;91.29
66213;SHT31;53015;50.046;8.238;2022-11-15T17:26:29;11.94;91.46
66213;SHT31;53015;50.046;8.238;2022-11-15T17:28:54;11.92;91.90
66213;SHT31;53015;50.046;8.238;2022-11-15T17:31:20;11.92;92.22
66213;SHT31;53015;50.046;8.238;2022-11-15T17:33:45;11.79;92.21